Black_sea_s — ERZW — position and weather

sailwx.info

Track history (hours):
 
Tides and Currents Weather Stations Pressure Air Temp Water Temp Dewpoint Dewpoint Depression Visibility Wind Speed Wind Dir Waves Ship Positions

Black_sea_s

Last reported at 2018-Jun-30 23:28 UTC. Time now 2018-Jul-20 00:55 UTC.
Position N 39°39' E 026°04'.
Warning: this ship's position is 19 days out of date.

Length 105 m; draft 6 m.

Type: Cargo ship. MMSI: 214182623.

Date/timePositionNaut miles runAvg speedWind from/ knotsBaromVisibWave heightAir tempDewpointWater temp
2018-Jun-30 23:28N 39°39' E 026°04'245 5.1
2018-Jun-28 23:54N 43°09' E 028°51'10 7.6
2018-Jun-28 22:37N 43°18' E 028°50'3 8.0
2018-Jun-28 22:18N 43°21' E 028°49'3 7.8
2018-Jun-28 21:58N 43°24' E 028°49'4 7.8
2018-Jun-28 21:30N 43°27' E 028°49'4 8.0
2018-Jun-28 20:59N 43°31' E 028°48'4 8.3
2018-Jun-28 20:31N 43°35' E 028°47'4 8.7
2018-Jun-28 20:00N 43°40' E 028°46'4 8.7
2018-Jun-28 19:31N 43°44' E 028°46'4 8.5
2018-Jun-28 19:01N 43°48' E 028°45'4 8.2
2018-Jun-28 18:31N 43°52' E 028°45'4 7.9
2018-Jun-28 18:01N 43°56' E 028°44'4 7.7
2018-Jun-28 17:31N 43°60' E 028°43'4 7.8
2018-Jun-28 17:01N 44°04' E 028°43'3 6.9
2018-Jun-28 16:31N 44°07' E 028°41'3 5.5
2018-Jun-28 16:00N 44°09' E 028°39'0 0.9
2018-Jun-28 15:28N 44°10' E 028°39'0 0.0
2018-Jun-28 14:58N 44°10' E 028°39'0 0.0
2018-Jun-28 14:28N 44°10' E 028°39'0 0.0
2018-Jun-28 13:58N 44°10' E 028°39'0 0.0
2018-Jun-28 13:28N 44°10' E 028°39'0 0.0
2018-Jun-28 12:58N 44°10' E 028°39'0 0.0
2018-Jun-28 12:28N 44°10' E 028°39'0 0.0
2018-Jun-28 11:58N 44°10' E 028°39'0 0.0
2018-Jun-28 11:28N 44°10' E 028°39'0 0.0
2018-Jun-28 10:58N 44°10' E 028°39'0 0.0
2018-Jun-28 10:28N 44°10' E 028°39'0 0.0
2018-Jun-28 09:58N 44°10' E 028°39'0 0.0
2018-Jun-28 09:28N 44°10' E 028°39'0 0.0
2018-Jun-28 08:58N 44°10' E 028°39'0 0.0
2018-Jun-28 08:28N 44°10' E 028°39'0 0.0
2018-Jun-28 07:58N 44°10' E 028°39'0 0.0
2018-Jun-28 07:28N 44°10' E 028°39'0 0.0
2018-Jun-28 06:58N 44°10' E 028°39'0 0.0
2018-Jun-28 06:28N 44°10' E 028°39'0 0.0
2018-Jun-28 05:58N 44°10' E 028°39'0 0.0
2018-Jun-28 05:28N 44°10' E 028°39'0 0.0
2018-Jun-28 04:58N 44°10' E 028°39'0 0.0
2018-Jun-28 04:28N 44°10' E 028°39'0 0.0
2018-Jun-28 03:58N 44°10' E 028°39'0 0.0
2018-Jun-28 03:28N 44°10' E 028°39'0 0.0
2018-Jun-28 02:58N 44°10' E 028°39'0 0.0
2018-Jun-28 02:28N 44°10' E 028°39'0 0.0
2018-Jun-28 01:58N 44°10' E 028°39'0 0.0
2018-Jun-28 01:25N 44°10' E 028°39'0 0.0
2018-Jun-28 00:58N 44°10' E 028°39'0 0.0
2018-Jun-28 00:28N 44°10' E 028°39'0 0.0
2018-Jun-27 23:58N 44°10' E 028°39'0 0.0
2018-Jun-27 23:28N 44°10' E 028°39'0 0.0
2018-Jun-27 22:58N 44°10' E 028°39'0 0.0
2018-Jun-27 22:28N 44°10' E 028°39'0 0.0
2018-Jun-27 21:58N 44°10' E 028°39'0 0.0
2018-Jun-27 21:28N 44°10' E 028°39'0 0.0
2018-Jun-27 20:58N 44°10' E 028°39'0 0.0
2018-Jun-27 20:28N 44°10' E 028°39'0 0.0
2018-Jun-27 19:58N 44°10' E 028°39'0 0.0
2018-Jun-27 19:28N 44°10' E 028°39'0 0.0
2018-Jun-27 18:58N 44°10' E 028°39'0 0.0
2018-Jun-27 18:28N 44°10' E 028°39'0 0.0
2018-Jun-27 17:58N 44°10' E 028°39'0 0.0
2018-Jun-27 17:28N 44°10' E 028°39'0 0.0
2018-Jun-27 17:01N 44°10' E 028°39'0 0.0
2018-Jun-27 16:31N 44°10' E 028°39'0 0.0
2018-Jun-27 16:01N 44°10' E 028°39'0 0.0
2018-Jun-27 15:30N 44°10' E 028°39'0 0.0
2018-Jun-27 15:00N 44°10' E 028°39'0 0.0
2018-Jun-27 14:30N 44°10' E 028°39'0 0.0
2018-Jun-27 14:00N 44°10' E 028°39'0 0.0
2018-Jun-27 13:30N 44°10' E 028°39'0 0.0
2018-Jun-27 13:00N 44°10' E 028°39'0 0.0
2018-Jun-27 12:30N 44°10' E 028°39'0 0.0
2018-Jun-27 12:00N 44°10' E 028°39'0 0.0
2018-Jun-27 11:30N 44°10' E 028°39'0 0.0
2018-Jun-27 11:00N 44°10' E 028°39'0 0.0
2018-Jun-27 10:18N 44°10' E 028°39'0 0.0
2018-Jun-27 10:00N 44°10' E 028°39'0 0.0
2018-Jun-27 09:30N 44°10' E 028°39'0 0.0
2018-Jun-27 08:58N 44°10' E 028°39'0 0.0
2018-Jun-27 08:26N 44°10' E 028°39'0 0.0
2018-Jun-27 07:58N 44°10' E 028°39'0 0.0
2018-Jun-27 07:30N 44°10' E 028°39'0 0.0
2018-Jun-27 07:00N 44°10' E 028°39'0 0.0
2018-Jun-27 06:30N 44°10' E 028°39'0 0.0
2018-Jun-27 06:00N 44°10' E 028°39'0 0.0
2018-Jun-27 05:30N 44°10' E 028°39'0 0.0
2018-Jun-27 05:00N 44°10' E 028°39'0 0.0
2018-Jun-27 04:30N 44°10' E 028°39'0 0.0
2018-Jun-27 04:00N 44°10' E 028°39'0 0.0
2018-Jun-27 03:30N 44°10' E 028°39'0 0.0
2018-Jun-27 03:00N 44°10' E 028°39'0 0.0
2018-Jun-27 02:30N 44°10' E 028°39'0 0.0
2018-Jun-27 01:57N 44°10' E 028°39'0 0.0
2018-Jun-27 01:30N 44°10' E 028°39'0 0.0
2018-Jun-27 01:00N 44°10' E 028°39'0 0.0
2018-Jun-27 00:30N 44°10' E 028°39'0 0.0
2018-Jun-27 00:00N 44°10' E 028°39'0 0.0
2018-Jun-26 23:30N 44°10' E 028°39'0 0.0
2018-Jun-26 23:00N 44°10' E 028°39'0 0.0
2018-Jun-26 22:30N 44°10' E 028°39'0 0.0
2018-Jun-26 22:00N 44°10' E 028°39'0 0.0
2018-Jun-26 21:30N 44°10' E 028°39'0 0.0
2018-Jun-26 21:00N 44°10' E 028°39'0 0.0
2018-Jun-26 20:30N 44°10' E 028°39'0 0.0
2018-Jun-26 20:00N 44°10' E 028°39'0 0.0
2018-Jun-26 19:30N 44°10' E 028°39'0 0.0
2018-Jun-26 19:00N 44°10' E 028°39'0 0.0
2018-Jun-26 18:27N 44°10' E 028°39'0 0.0
2018-Jun-26 18:00N 44°10' E 028°39'0 0.0
2018-Jun-26 17:30N 44°10' E 028°39'0 0.0
2018-Jun-26 16:27N 44°10' E 028°39'0 0.0
2018-Jun-26 16:00N 44°10' E 028°39'0 0.0
2018-Jun-26 15:27N 44°10' E 028°39'0 0.0
2018-Jun-26 15:00N 44°10' E 028°39'0 0.0
2018-Jun-26 14:30N 44°10' E 028°39'0 0.0
2018-Jun-26 13:54N 44°10' E 028°39'0 0.0
2018-Jun-26 13:30N 44°10' E 028°39'0 0.0
2018-Jun-26 13:00N 44°10' E 028°39'0 0.0
2018-Jun-26 12:30N 44°10' E 028°39'0 0.0
2018-Jun-26 12:00N 44°10' E 028°39'0 0.0
2018-Jun-26 11:30N 44°10' E 028°39'0 0.0
2018-Jun-26 11:00N 44°10' E 028°39'0 0.0
2018-Jun-26 10:30N 44°10' E 028°39'0 0.0
2018-Jun-26 10:00N 44°10' E 028°39'0 0.0
2018-Jun-26 09:30N 44°10' E 028°39'0 0.0
2018-Jun-26 09:00N 44°10' E 028°39'0 0.0
2018-Jun-26 08:30N 44°10' E 028°39'0 0.0
2018-Jun-26 08:00N 44°10' E 028°39'0 0.0
2018-Jun-26 07:30N 44°10' E 028°39'0 0.0
2018-Jun-26 07:00N 44°10' E 028°39'0 0.0
2018-Jun-26 06:30N 44°10' E 028°39'0 0.0
2018-Jun-26 06:00N 44°10' E 028°39'0 0.0
2018-Jun-26 05:30N 44°10' E 028°39'0 0.0
2018-Jun-26 05:00N 44°10' E 028°39'0 0.0
2018-Jun-26 04:30N 44°10' E 028°39'0 0.0
2018-Jun-26 04:00N 44°10' E 028°39'0 0.0
2018-Jun-26 03:30N 44°10' E 028°39'0 0.0
2018-Jun-26 03:00N 44°10' E 028°39'0 0.0
2018-Jun-26 02:30N 44°10' E 028°39'0 0.0
2018-Jun-26 02:00N 44°10' E 028°39'0 0.0
2018-Jun-26 01:29N 44°10' E 028°39'0 0.0
2018-Jun-26 00:59N 44°10' E 028°39'0 0.0
2018-Jun-26 00:29N 44°10' E 028°39'0 0.0
2018-Jun-25 23:59N 44°10' E 028°39'0 0.0
2018-Jun-25 23:29N 44°10' E 028°39'0 0.0
2018-Jun-25 22:59N 44°10' E 028°39'0 0.0
2018-Jun-25 22:29N 44°10' E 028°39'0 0.0
2018-Jun-25 21:59N 44°10' E 028°39'0 0.0
2018-Jun-25 21:29N 44°10' E 028°39'0 0.0
2018-Jun-25 20:59N 44°10' E 028°39'0 0.0
2018-Jun-25 20:29N 44°10' E 028°39'0 0.0
2018-Jun-25 19:59N 44°10' E 028°39'0 0.0
2018-Jun-25 19:29N 44°10' E 028°39'0 0.0
2018-Jun-25 18:59N 44°10' E 028°39'0 0.0
2018-Jun-25 18:29N 44°10' E 028°39'0 0.0
2018-Jun-25 17:59N 44°10' E 028°39'0 0.0
2018-Jun-25 17:29N 44°10' E 028°39'0 0.0
2018-Jun-25 16:59N 44°10' E 028°39'0 0.0
2018-Jun-25 16:29N 44°10' E 028°39'0 0.0
2018-Jun-25 15:59N 44°10' E 028°39'0 0.0
2018-Jun-25 15:29N 44°10' E 028°39'0 0.0
2018-Jun-25 14:59N 44°10' E 028°39'0 0.0
2018-Jun-25 14:29N 44°10' E 028°39'0 0.0
2018-Jun-25 13:59N 44°10' E 028°39'0 0.0
2018-Jun-25 13:29N 44°10' E 028°39'0 0.0
2018-Jun-25 12:59N 44°10' E 028°39'0 0.0
2018-Jun-25 12:29N 44°10' E 028°39'0 0.0
2018-Jun-25 11:59N 44°10' E 028°39'0 0.0
2018-Jun-25 11:23N 44°10' E 028°39'0 0.0
2018-Jun-25 10:59N 44°10' E 028°39'0 0.0
2018-Jun-25 10:29N 44°10' E 028°39'0 0.0
2018-Jun-25 09:59N 44°10' E 028°39'0 0.0
2018-Jun-25 09:29N 44°10' E 028°39'0 0.0
2018-Jun-25 08:59N 44°10' E 028°39'0 0.0
2018-Jun-25 08:29N 44°10' E 028°39'0 0.0
2018-Jun-25 07:59N 44°10' E 028°39'0 0.0
2018-Jun-25 07:29N 44°10' E 028°39'0 0.0
2018-Jun-25 06:59N 44°10' E 028°39'0 0.0
2018-Jun-25 06:29N 44°10' E 028°39'0 0.0
2018-Jun-25 05:59N 44°10' E 028°39'0 0.0
2018-Jun-25 05:29N 44°10' E 028°39'0 0.0
2018-Jun-25 04:59N 44°10' E 028°39'0 0.0
2018-Jun-25 04:29N 44°10' E 028°39'0 0.0
2018-Jun-25 03:59N 44°10' E 028°39'0 0.0
2018-Jun-25 03:29N 44°10' E 028°39'0 0.0
2018-Jun-25 02:59N 44°10' E 028°39'0 0.0
2018-Jun-25 02:29N 44°10' E 028°39'0 0.0
2018-Jun-25 01:59N 44°10' E 028°39'0 0.0
2018-Jun-25 01:29N 44°10' E 028°39'0 0.0
2018-Jun-25 00:59N 44°10' E 028°39'0 0.0
2018-Jun-25 00:29N 44°10' E 028°39'0 0.0
2018-Jun-24 23:59N 44°10' E 028°39'0 0.0
2018-Jun-24 23:29N 44°10' E 028°39'0 0.0
2018-Jun-24 22:59N 44°10' E 028°39'0 0.0
2018-Jun-24 22:29N 44°10' E 028°39'0 0.0
2018-Jun-24 21:59N 44°10' E 028°39'0 0.0
2018-Jun-24 21:29N 44°10' E 028°39'0 0.0
2018-Jun-24 20:59N 44°10' E 028°39'0 0.0
2018-Jun-24 20:29N 44°10' E 028°39'0 0.0
2018-Jun-24 19:59N 44°10' E 028°39'0 0.0
2018-Jun-24 19:29N 44°10' E 028°39'0 0.0
2018-Jun-24 18:59N 44°10' E 028°39'0 0.0
2018-Jun-24 18:29N 44°10' E 028°39'0 0.0
2018-Jun-24 17:59N 44°10' E 028°39'0 0.0
2018-Jun-24 17:29N 44°10' E 028°39'0 0.0
2018-Jun-24 16:59N 44°10' E 028°39'0 0.0
2018-Jun-24 16:29N 44°10' E 028°39'0 0.0
2018-Jun-24 15:59N 44°10' E 028°39'0 0.0
2018-Jun-24 15:29N 44°10' E 028°39'0 0.0
2018-Jun-24 14:59N 44°10' E 028°39'0 0.0
2018-Jun-24 14:26N 44°10' E 028°39'0 0.0
2018-Jun-24 13:59N 44°10' E 028°39'0 0.0
2018-Jun-24 13:29N 44°10' E 028°39'0 0.0
2018-Jun-24 12:59N 44°10' E 028°39'0 0.0
2018-Jun-24 12:29N 44°10' E 028°39'0 0.0
2018-Jun-24 11:59N 44°10' E 028°39'0 0.0
2018-Jun-24 11:29N 44°10' E 028°39'0 0.0
2018-Jun-24 10:58N 44°10' E 028°39'0 0.0
2018-Jun-24 10:28N 44°10' E 028°39'0 0.0
2018-Jun-24 09:58N 44°10' E 028°39'0 0.0
2018-Jun-24 09:28N 44°10' E 028°39'0 0.0
2018-Jun-24 08:58N 44°10' E 028°39'0 0.0
2018-Jun-24 08:28N 44°10' E 028°39'0 0.0
2018-Jun-24 07:58N 44°10' E 028°39'0 0.0
2018-Jun-24 07:28N 44°10' E 028°39'0 0.0
2018-Jun-24 06:58N 44°10' E 028°39'0 0.0
2018-Jun-24 06:28N 44°10' E 028°39'0 0.0
2018-Jun-24 05:58N 44°10' E 028°39'0 0.0
2018-Jun-24 05:28N 44°10' E 028°39'0 0.0
2018-Jun-24 04:58N 44°10' E 028°39'0 0.0
2018-Jun-24 04:28N 44°10' E 028°39'0 0.0
2018-Jun-24 03:58N 44°10' E 028°39'0 0.0
2018-Jun-24 03:28N 44°10' E 028°39'0 0.0
2018-Jun-24 02:58N 44°10' E 028°39'0 0.0
2018-Jun-24 02:28N 44°10' E 028°39'0 0.0
2018-Jun-24 01:58N 44°10' E 028°39'0 0.0
2018-Jun-24 01:28N 44°10' E 028°39'0 0.0
2018-Jun-24 00:58N 44°10' E 028°39'0 0.0
2018-Jun-24 00:28N 44°10' E 028°39'0 0.0
2018-Jun-23 23:58N 44°10' E 028°39'0 0.0
2018-Jun-23 23:28N 44°10' E 028°39'0 0.0
2018-Jun-23 22:58N 44°10' E 028°39'0 0.0
2018-Jun-23 22:25N 44°10' E 028°39'0 0.0
2018-Jun-23 21:58N 44°10' E 028°39'0 0.0
2018-Jun-23 21:28N 44°10' E 028°39'0 0.0
2018-Jun-23 20:58N 44°10' E 028°39'0 0.0
2018-Jun-23 20:28N 44°10' E 028°39'0 0.0
2018-Jun-23 19:58N 44°10' E 028°39'0 0.0
2018-Jun-23 19:25N 44°10' E 028°39'0 0.0
2018-Jun-23 18:58N 44°10' E 028°39'0 0.0
2018-Jun-23 18:28N 44°10' E 028°39'0 0.0
2018-Jun-23 17:58N 44°10' E 028°39'0 0.0
2018-Jun-23 17:25N 44°10' E 028°39'0 0.0
2018-Jun-23 16:58N 44°10' E 028°39'0 0.0
2018-Jun-23 16:28N 44°10' E 028°39'0 0.0
2018-Jun-23 15:58N 44°10' E 028°39'0 0.0
2018-Jun-23 15:28N 44°10' E 028°39'0 0.0
2018-Jun-23 14:58N 44°10' E 028°39'0 0.0
2018-Jun-23 14:28N 44°10' E 028°39'0 0.0
2018-Jun-23 13:58N 44°10' E 028°39'0 0.0
2018-Jun-23 13:28N 44°10' E 028°39'0 0.0
2018-Jun-23 12:58N 44°10' E 028°39'0 0.0
2018-Jun-23 12:07N 44°10' E 028°39'0 0.0
2018-Jun-23 11:58N 44°10' E 028°39'0 0.0
2018-Jun-23 11:28N 44°10' E 028°39'0 0.0
2018-Jun-23 10:58N 44°10' E 028°39'0 0.0
2018-Jun-23 10:28N 44°10' E 028°39'0 0.0
2018-Jun-23 09:58N 44°10' E 028°39'0 0.0
2018-Jun-23 09:28N 44°10' E 028°39'0 0.0
2018-Jun-23 08:58N 44°10' E 028°39'0 0.0
2018-Jun-23 08:28N 44°10' E 028°39'0 0.0
2018-Jun-23 07:58N 44°10' E 028°39'0 0.0
2018-Jun-23 07:28N 44°10' E 028°39'0 0.0
2018-Jun-23 06:58N 44°10' E 028°39'0 0.0
2018-Jun-23 06:28N 44°10' E 028°39'0 0.0
2018-Jun-23 05:58N 44°10' E 028°39'0 0.0
2018-Jun-23 05:28N 44°10' E 028°39'0 0.0
2018-Jun-23 04:58N 44°10' E 028°39'0 0.0
2018-Jun-23 04:28N 44°10' E 028°39'0 0.0
2018-Jun-23 03:58N 44°10' E 028°39'0 0.0
2018-Jun-23 03:28N 44°10' E 028°39'0 0.0
2018-Jun-23 02:58N 44°10' E 028°39'0 0.0
2018-Jun-23 02:28N 44°10' E 028°39'0 0.0
2018-Jun-23 01:58N 44°10' E 028°39'0 0.0
2018-Jun-23 01:28N 44°10' E 028°39'0 0.0
2018-Jun-23 00:58N 44°10' E 028°39'0 0.0
2018-Jun-23 00:28N 44°10' E 028°39'0 0.0
2018-Jun-22 23:58N 44°10' E 028°39'0 0.0
2018-Jun-22 23:28N 44°10' E 028°39'0 0.0
2018-Jun-22 22:58N 44°10' E 028°39'0 0.0
2018-Jun-22 22:28N 44°10' E 028°39'0 0.0
2018-Jun-22 21:58N 44°10' E 028°39'0 0.0
2018-Jun-22 21:28N 44°10' E 028°39'0 0.0
2018-Jun-22 20:58N 44°10' E 028°39'0 0.0
2018-Jun-22 20:28N 44°10' E 028°39'0 0.0
2018-Jun-22 19:58N 44°10' E 028°39'0 0.0
2018-Jun-22 19:28N 44°10' E 028°39'0 0.0
2018-Jun-22 18:58N 44°10' E 028°39'0 0.0
2018-Jun-22 18:28N 44°10' E 028°39'0 0.0
2018-Jun-22 17:55N 44°10' E 028°39'0 0.0
2018-Jun-22 17:28N 44°10' E 028°39'0 0.0
2018-Jun-22 16:58N 44°10' E 028°39'0 0.0
2018-Jun-22 16:28N 44°10' E 028°39'0 0.0
2018-Jun-22 15:58N 44°10' E 028°39'0 0.0
2018-Jun-22 15:28N 44°10' E 028°39'0 0.0
2018-Jun-22 14:58N 44°10' E 028°39'0 0.0
2018-Jun-22 14:28N 44°10' E 028°39'0 0.0
2018-Jun-22 13:58N 44°10' E 028°39'0 0.0
2018-Jun-22 13:28N 44°10' E 028°39'0 0.0
2018-Jun-22 12:58N 44°10' E 028°39'0 0.0
2018-Jun-22 12:28N 44°10' E 028°39'0 0.0
2018-Jun-22 11:55N 44°10' E 028°39'0 0.0
2018-Jun-22 11:28N 44°10' E 028°39'0 0.0
2018-Jun-22 11:01N 44°10' E 028°39'0 0.0
2018-Jun-22 10:30N 44°10' E 028°39'0 0.0
2018-Jun-22 10:00N 44°10' E 028°39'0 0.0
2018-Jun-22 09:30N 44°10' E 028°39'0 0.0
2018-Jun-22 09:00N 44°10' E 028°39'0 0.0
2018-Jun-22 08:27N 44°10' E 028°39'0 0.0
2018-Jun-22 08:00N 44°10' E 028°39'0 0.0
2018-Jun-22 07:30N 44°10' E 028°39'0 0.0
2018-Jun-22 07:00N 44°10' E 028°39'0 0.0
2018-Jun-22 06:27N 44°10' E 028°39'0 0.0
2018-Jun-22 05:57N 44°10' E 028°39'0 0.0
2018-Jun-22 05:30N 44°10' E 028°39'0 0.0
2018-Jun-22 05:00N 44°10' E 028°39'0 0.0
2018-Jun-22 04:27N 44°10' E 028°39'0 0.0
2018-Jun-22 03:57N 44°10' E 028°39'0 0.0
2018-Jun-22 03:30N 44°10' E 028°39'0 0.0
2018-Jun-22 03:00N 44°10' E 028°39'0 0.0
2018-Jun-22 02:30N 44°10' E 028°39'0 0.0
2018-Jun-22 02:00N 44°10' E 028°39'0 0.0
2018-Jun-22 01:30N 44°10' E 028°39'0 0.0
2018-Jun-22 01:00N 44°10' E 028°39'0 0.0
2018-Jun-22 00:30N 44°10' E 028°39'0 0.0
2018-Jun-22 00:00N 44°10' E 028°39'0 0.0
2018-Jun-21 23:30N 44°10' E 028°39'0 0.0
2018-Jun-21 23:00N 44°10' E 028°39'0 0.0
2018-Jun-21 22:30N 44°10' E 028°39'0 0.0
2018-Jun-21 22:00N 44°10' E 028°39'0 0.0
2018-Jun-21 21:30N 44°10' E 028°39'0 0.0
2018-Jun-21 21:00N 44°10' E 028°39'0 0.0
2018-Jun-21 20:30N 44°10' E 028°39'0 0.0
2018-Jun-21 20:00N 44°10' E 028°39'0 0.0
2018-Jun-21 19:30N 44°10' E 028°39'0 0.0
2018-Jun-21 19:00N 44°10' E 028°39'0 0.0
2018-Jun-21 18:30N 44°10' E 028°39'0 0.0
2018-Jun-21 17:54N 44°10' E 028°39'0 0.0
2018-Jun-21 17:27N 44°10' E 028°39'0 0.0
2018-Jun-21 17:00N 44°10' E 028°39'0 0.0
2018-Jun-21 16:30N 44°10' E 028°39'0 0.0
2018-Jun-21 16:00N 44°10' E 028°39'0 0.0
2018-Jun-21 15:30N 44°10' E 028°39'0 0.0
2018-Jun-21 15:00N 44°10' E 028°39'0 0.0
2018-Jun-21 14:30N 44°10' E 028°39'0 0.0
2018-Jun-21 14:00N 44°10' E 028°39'0 0.0
2018-Jun-21 13:30N 44°10' E 028°39'0 0.0
2018-Jun-21 13:00N 44°10' E 028°39'0 0.0
2018-Jun-21 12:30N 44°10' E 028°39'0 0.0
2018-Jun-21 12:00N 44°10' E 028°39'0 0.0
2018-Jun-21 11:30N 44°10' E 028°39'0 0.0
2018-Jun-21 11:00N 44°10' E 028°39'0 0.0
2018-Jun-21 10:30N 44°10' E 028°39'0 0.0
2018-Jun-21 10:00N 44°10' E 028°39'0 0.0
2018-Jun-21 09:30N 44°10' E 028°39'0 0.0
2018-Jun-21 08:51N 44°10' E 028°39'0 0.0
2018-Jun-21 08:27N 44°10' E 028°39'0 0.0
2018-Jun-21 08:00N 44°10' E 028°39'0 0.0
2018-Jun-21 07:30N 44°10' E 028°39'0 0.0
2018-Jun-21 07:00N 44°10' E 028°39'0 0.0
2018-Jun-21 04:04N 44°10' E 028°39'0 0.0
2018-Jun-21 03:58N 44°10' E 028°39'0 0.0
2018-Jun-21 03:28N 44°10' E 028°39'0 0.0
2018-Jun-21 02:58N 44°10' E 028°39'0 0.0
2018-Jun-21 02:28N 44°10' E 028°39'0 0.0
2018-Jun-21 01:58N 44°10' E 028°39'0 0.0
2018-Jun-21 01:28N 44°10' E 028°39'0 0.0
2018-Jun-21 00:58N 44°10' E 028°39'0 0.0
2018-Jun-21 00:25N 44°10' E 028°39'0 0.0
2018-Jun-20 23:58N 44°10' E 028°39'  
Track history (hours):
 
Tides and Currents Weather Stations Pressure Air Temp Water Temp Dewpoint Dewpoint Depression Visibility Wind Speed Wind Dir Waves Ship Positions

Black_sea_s

Last reported at 2018-Jun-30 23:28 UTC. Time now 2018-Jul-20 00:55 UTC.
Position N 39°39' E 026°04'.
Warning: this ship's position is 19 days out of date.

Length 105 m; draft 6 m.

Type: Cargo ship. MMSI: 214182623.

Date/timePositionNaut miles runAvg speedWind from/ knotsBaromVisibWave heightAir tempDewpointWater temp
2018-Jun-30 23:28N 39°39' E 026°04'245 5.1
2018-Jun-28 23:54N 43°09' E 028°51'10 7.6
2018-Jun-28 22:37N 43°18' E 028°50'3 8.0
2018-Jun-28 22:18N 43°21' E 028°49'3 7.8
2018-Jun-28 21:58N 43°24' E 028°49'4 7.8
2018-Jun-28 21:30N 43°27' E 028°49'4 8.0
2018-Jun-28 20:59N 43°31' E 028°48'4 8.3
2018-Jun-28 20:31N 43°35' E 028°47'4 8.7
2018-Jun-28 20:00N 43°40' E 028°46'4 8.7
2018-Jun-28 19:31N 43°44' E 028°46'4 8.5
2018-Jun-28 19:01N 43°48' E 028°45'4 8.2
2018-Jun-28 18:31N 43°52' E 028°45'4 7.9
2018-Jun-28 18:01N 43°56' E 028°44'4 7.7
2018-Jun-28 17:31N 43°60' E 028°43'4 7.8
2018-Jun-28 17:01N 44°04' E 028°43'3 6.9
2018-Jun-28 16:31N 44°07' E 028°41'3 5.5
2018-Jun-28 16:00N 44°09' E 028°39'0 0.9
2018-Jun-28 15:28N 44°10' E 028°39'0 0.0
2018-Jun-28 14:58N 44°10' E 028°39'0 0.0
2018-Jun-28 14:28N 44°10' E 028°39'0 0.0
2018-Jun-28 13:58N 44°10' E 028°39'0 0.0
2018-Jun-28 13:28N 44°10' E 028°39'0 0.0
2018-Jun-28 12:58N 44°10' E 028°39'0 0.0
2018-Jun-28 12:28N 44°10' E 028°39'0 0.0
2018-Jun-28 11:58N 44°10' E 028°39'0 0.0
2018-Jun-28 11:28N 44°10' E 028°39'0 0.0
2018-Jun-28 10:58N 44°10' E 028°39'0 0.0
2018-Jun-28 10:28N 44°10' E 028°39'0 0.0
2018-Jun-28 09:58N 44°10' E 028°39'0 0.0
2018-Jun-28 09:28N 44°10' E 028°39'0 0.0
2018-Jun-28 08:58N 44°10' E 028°39'0 0.0
2018-Jun-28 08:28N 44°10' E 028°39'0 0.0
2018-Jun-28 07:58N 44°10' E 028°39'0 0.0
2018-Jun-28 07:28N 44°10' E 028°39'0 0.0
2018-Jun-28 06:58N 44°10' E 028°39'0 0.0
2018-Jun-28 06:28N 44°10' E 028°39'0 0.0
2018-Jun-28 05:58N 44°10' E 028°39'0 0.0
2018-Jun-28 05:28N 44°10' E 028°39'0 0.0
2018-Jun-28 04:58N 44°10' E 028°39'0 0.0
2018-Jun-28 04:28N 44°10' E 028°39'0 0.0
2018-Jun-28 03:58N 44°10' E 028°39'0 0.0
2018-Jun-28 03:28N 44°10' E 028°39'0 0.0
2018-Jun-28 02:58N 44°10' E 028°39'0 0.0
2018-Jun-28 02:28N 44°10' E 028°39'0 0.0
2018-Jun-28 01:58N 44°10' E 028°39'0 0.0
2018-Jun-28 01:25N 44°10' E 028°39'0 0.0
2018-Jun-28 00:58N 44°10' E 028°39'0 0.0
2018-Jun-28 00:28N 44°10' E 028°39'0 0.0
2018-Jun-27 23:58N 44°10' E 028°39'0 0.0
2018-Jun-27 23:28N 44°10' E 028°39'0 0.0
2018-Jun-27 22:58N 44°10' E 028°39'0 0.0
2018-Jun-27 22:28N 44°10' E 028°39'0 0.0
2018-Jun-27 21:58N 44°10' E 028°39'0 0.0
2018-Jun-27 21:28N 44°10' E 028°39'0 0.0
2018-Jun-27 20:58N 44°10' E 028°39'0 0.0
2018-Jun-27 20:28N 44°10' E 028°39'0 0.0
2018-Jun-27 19:58N 44°10' E 028°39'0 0.0
2018-Jun-27 19:28N 44°10' E 028°39'0 0.0
2018-Jun-27 18:58N 44°10' E 028°39'0 0.0
2018-Jun-27 18:28N 44°10' E 028°39'0 0.0
2018-Jun-27 17:58N 44°10' E 028°39'0 0.0
2018-Jun-27 17:28N 44°10' E 028°39'0 0.0
2018-Jun-27 17:01N 44°10' E 028°39'0 0.0
2018-Jun-27 16:31N 44°10' E 028°39'0 0.0
2018-Jun-27 16:01N 44°10' E 028°39'0 0.0
2018-Jun-27 15:30N 44°10' E 028°39'0 0.0
2018-Jun-27 15:00N 44°10' E 028°39'0 0.0
2018-Jun-27 14:30N 44°10' E 028°39'0 0.0
2018-Jun-27 14:00N 44°10' E 028°39'0 0.0
2018-Jun-27 13:30N 44°10' E 028°39'0 0.0
2018-Jun-27 13:00N 44°10' E 028°39'0 0.0
2018-Jun-27 12:30N 44°10' E 028°39'0 0.0
2018-Jun-27 12:00N 44°10' E 028°39'0 0.0
2018-Jun-27 11:30N 44°10' E 028°39'0 0.0
2018-Jun-27 11:00N 44°10' E 028°39'0 0.0
2018-Jun-27 10:18N 44°10' E 028°39'0 0.0
2018-Jun-27 10:00N 44°10' E 028°39'0 0.0
2018-Jun-27 09:30N 44°10' E 028°39'0 0.0
2018-Jun-27 08:58N 44°10' E 028°39'0 0.0
2018-Jun-27 08:26N 44°10' E 028°39'0 0.0
2018-Jun-27 07:58N 44°10' E 028°39'0 0.0
2018-Jun-27 07:30N 44°10' E 028°39'0 0.0
2018-Jun-27 07:00N 44°10' E 028°39'0 0.0
2018-Jun-27 06:30N 44°10' E 028°39'0 0.0
2018-Jun-27 06:00N 44°10' E 028°39'0 0.0
2018-Jun-27 05:30N 44°10' E 028°39'0 0.0
2018-Jun-27 05:00N 44°10' E 028°39'0 0.0
2018-Jun-27 04:30N 44°10' E 028°39'0 0.0
2018-Jun-27 04:00N 44°10' E 028°39'0 0.0
2018-Jun-27 03:30N 44°10' E 028°39'0 0.0
2018-Jun-27 03:00N 44°10' E 028°39'0 0.0
2018-Jun-27 02:30N 44°10' E 028°39'0 0.0
2018-Jun-27 01:57N 44°10' E 028°39'0 0.0
2018-Jun-27 01:30N 44°10' E 028°39'0 0.0
2018-Jun-27 01:00N 44°10' E 028°39'0 0.0
2018-Jun-27 00:30N 44°10' E 028°39'0 0.0
2018-Jun-27 00:00N 44°10' E 028°39'0 0.0
2018-Jun-26 23:30N 44°10' E 028°39'0 0.0
2018-Jun-26 23:00N 44°10' E 028°39'0 0.0
2018-Jun-26 22:30N 44°10' E 028°39'0 0.0
2018-Jun-26 22:00N 44°10' E 028°39'0 0.0
2018-Jun-26 21:30N 44°10' E 028°39'0 0.0
2018-Jun-26 21:00N 44°10' E 028°39'0 0.0
2018-Jun-26 20:30N 44°10' E 028°39'0 0.0
2018-Jun-26 20:00N 44°10' E 028°39'0 0.0
2018-Jun-26 19:30N 44°10' E 028°39'0 0.0
2018-Jun-26 19:00N 44°10' E 028°39'0 0.0
2018-Jun-26 18:27N 44°10' E 028°39'0 0.0
2018-Jun-26 18:00N 44°10' E 028°39'0 0.0
2018-Jun-26 17:30N 44°10' E 028°39'0 0.0
2018-Jun-26 16:27N 44°10' E 028°39'0 0.0
2018-Jun-26 16:00N 44°10' E 028°39'0 0.0
2018-Jun-26 15:27N 44°10' E 028°39'0 0.0
2018-Jun-26 15:00N 44°10' E 028°39'0 0.0
2018-Jun-26 14:30N 44°10' E 028°39'0 0.0
2018-Jun-26 13:54N 44°10' E 028°39'0 0.0
2018-Jun-26 13:30N 44°10' E 028°39'0 0.0
2018-Jun-26 13:00N 44°10' E 028°39'0 0.0
2018-Jun-26 12:30N 44°10' E 028°39'0 0.0
2018-Jun-26 12:00N 44°10' E 028°39'0 0.0
2018-Jun-26 11:30N 44°10' E 028°39'0 0.0
2018-Jun-26 11:00N 44°10' E 028°39'0 0.0
2018-Jun-26 10:30N 44°10' E 028°39'0 0.0
2018-Jun-26 10:00N 44°10' E 028°39'0 0.0
2018-Jun-26 09:30N 44°10' E 028°39'0 0.0
2018-Jun-26 09:00N 44°10' E 028°39'0 0.0
2018-Jun-26 08:30N 44°10' E 028°39'0 0.0
2018-Jun-26 08:00N 44°10' E 028°39'0 0.0
2018-Jun-26 07:30N 44°10' E 028°39'0 0.0
2018-Jun-26 07:00N 44°10' E 028°39'0 0.0
2018-Jun-26 06:30N 44°10' E 028°39'0 0.0
2018-Jun-26 06:00N 44°10' E 028°39'0 0.0
2018-Jun-26 05:30N 44°10' E 028°39'0 0.0
2018-Jun-26 05:00N 44°10' E 028°39'0 0.0
2018-Jun-26 04:30N 44°10' E 028°39'0 0.0
2018-Jun-26 04:00N 44°10' E 028°39'0 0.0
2018-Jun-26 03:30N 44°10' E 028°39'0 0.0
2018-Jun-26 03:00N 44°10' E 028°39'0 0.0
2018-Jun-26 02:30N 44°10' E 028°39'0 0.0
2018-Jun-26 02:00N 44°10' E 028°39'0 0.0
2018-Jun-26 01:29N 44°10' E 028°39'0 0.0
2018-Jun-26 00:59N 44°10' E 028°39'0 0.0
2018-Jun-26 00:29N 44°10' E 028°39'0 0.0
2018-Jun-25 23:59N 44°10' E 028°39'0 0.0
2018-Jun-25 23:29N 44°10' E 028°39'0 0.0
2018-Jun-25 22:59N 44°10' E 028°39'0 0.0
2018-Jun-25 22:29N 44°10' E 028°39'0 0.0
2018-Jun-25 21:59N 44°10' E 028°39'0 0.0
2018-Jun-25 21:29N 44°10' E 028°39'0 0.0
2018-Jun-25 20:59N 44°10' E 028°39'0 0.0
2018-Jun-25 20:29N 44°10' E 028°39'0 0.0
2018-Jun-25 19:59N 44°10' E 028°39'0 0.0
2018-Jun-25 19:29N 44°10' E 028°39'0 0.0
2018-Jun-25 18:59N 44°10' E 028°39'0 0.0
2018-Jun-25 18:29N 44°10' E 028°39'0 0.0
2018-Jun-25 17:59N 44°10' E 028°39'0 0.0
2018-Jun-25 17:29N 44°10' E 028°39'0 0.0
2018-Jun-25 16:59N 44°10' E 028°39'0 0.0
2018-Jun-25 16:29N 44°10' E 028°39'0 0.0
2018-Jun-25 15:59N 44°10' E 028°39'0 0.0
2018-Jun-25 15:29N 44°10' E 028°39'0 0.0
2018-Jun-25 14:59N 44°10' E 028°39'0 0.0
2018-Jun-25 14:29N 44°10' E 028°39'0 0.0
2018-Jun-25 13:59N 44°10' E 028°39'0 0.0
2018-Jun-25 13:29N 44°10' E 028°39'0 0.0
2018-Jun-25 12:59N 44°10' E 028°39'0 0.0
2018-Jun-25 12:29N 44°10' E 028°39'0 0.0
2018-Jun-25 11:59N 44°10' E 028°39'0 0.0
2018-Jun-25 11:23N 44°10' E 028°39'0 0.0
2018-Jun-25 10:59N 44°10' E 028°39'0 0.0
2018-Jun-25 10:29N 44°10' E 028°39'0 0.0
2018-Jun-25 09:59N 44°10' E 028°39'0 0.0
2018-Jun-25 09:29N 44°10' E 028°39'0 0.0
2018-Jun-25 08:59N 44°10' E 028°39'0 0.0
2018-Jun-25 08:29N 44°10' E 028°39'0 0.0
2018-Jun-25 07:59N 44°10' E 028°39'0 0.0
2018-Jun-25 07:29N 44°10' E 028°39'0 0.0
2018-Jun-25 06:59N 44°10' E 028°39'0 0.0
2018-Jun-25 06:29N 44°10' E 028°39'0 0.0
2018-Jun-25 05:59N 44°10' E 028°39'0 0.0
2018-Jun-25 05:29N 44°10' E 028°39'0 0.0
2018-Jun-25 04:59N 44°10' E 028°39'0 0.0
2018-Jun-25 04:29N 44°10' E 028°39'0 0.0
2018-Jun-25 03:59N 44°10' E 028°39'0 0.0
2018-Jun-25 03:29N 44°10' E 028°39'0 0.0
2018-Jun-25 02:59N 44°10' E 028°39'0 0.0
2018-Jun-25 02:29N 44°10' E 028°39'0 0.0
2018-Jun-25 01:59N 44°10' E 028°39'0 0.0
2018-Jun-25 01:29N 44°10' E 028°39'0 0.0
2018-Jun-25 00:59N 44°10' E 028°39'0 0.0
2018-Jun-25 00:29N 44°10' E 028°39'0 0.0
2018-Jun-24 23:59N 44°10' E 028°39'0 0.0
2018-Jun-24 23:29N 44°10' E 028°39'0 0.0
2018-Jun-24 22:59N 44°10' E 028°39'0 0.0
2018-Jun-24 22:29N 44°10' E 028°39'0 0.0
2018-Jun-24 21:59N 44°10' E 028°39'0 0.0
2018-Jun-24 21:29N 44°10' E 028°39'0 0.0
2018-Jun-24 20:59N 44°10' E 028°39'0 0.0
2018-Jun-24 20:29N 44°10' E 028°39'0 0.0
2018-Jun-24 19:59N 44°10' E 028°39'0 0.0
2018-Jun-24 19:29N 44°10' E 028°39'0 0.0
2018-Jun-24 18:59N 44°10' E 028°39'0 0.0
2018-Jun-24 18:29N 44°10' E 028°39'0 0.0
2018-Jun-24 17:59N 44°10' E 028°39'0 0.0
2018-Jun-24 17:29N 44°10' E 028°39'0 0.0
2018-Jun-24 16:59N 44°10' E 028°39'0 0.0
2018-Jun-24 16:29N 44°10' E 028°39'0 0.0
2018-Jun-24 15:59N 44°10' E 028°39'0 0.0
2018-Jun-24 15:29N 44°10' E 028°39'0 0.0
2018-Jun-24 14:59N 44°10' E 028°39'0 0.0
2018-Jun-24 14:26N 44°10' E 028°39'0 0.0
2018-Jun-24 13:59N 44°10' E 028°39'0 0.0
2018-Jun-24 13:29N 44°10' E 028°39'0 0.0
2018-Jun-24 12:59N 44°10' E 028°39'0 0.0
2018-Jun-24 12:29N 44°10' E 028°39'0 0.0
2018-Jun-24 11:59N 44°10' E 028°39'0 0.0
2018-Jun-24 11:29N 44°10' E 028°39'0 0.0
2018-Jun-24 10:58N 44°10' E 028°39'0 0.0
2018-Jun-24 10:28N 44°10' E 028°39'0 0.0
2018-Jun-24 09:58N 44°10' E 028°39'0 0.0
2018-Jun-24 09:28N 44°10' E 028°39'0 0.0
2018-Jun-24 08:58N 44°10' E 028°39'0 0.0
2018-Jun-24 08:28N 44°10' E 028°39'0 0.0
2018-Jun-24 07:58N 44°10' E 028°39'0 0.0
2018-Jun-24 07:28N 44°10' E 028°39'0 0.0
2018-Jun-24 06:58N 44°10' E 028°39'0 0.0
2018-Jun-24 06:28N 44°10' E 028°39'0 0.0
2018-Jun-24 05:58N 44°10' E 028°39'0 0.0
2018-Jun-24 05:28N 44°10' E 028°39'0 0.0
2018-Jun-24 04:58N 44°10' E 028°39'0 0.0
2018-Jun-24 04:28N 44°10' E 028°39'0 0.0
2018-Jun-24 03:58N 44°10' E 028°39'0 0.0
2018-Jun-24 03:28N 44°10' E 028°39'0 0.0
2018-Jun-24 02:58N 44°10' E 028°39'0 0.0
2018-Jun-24 02:28N 44°10' E 028°39'0 0.0
2018-Jun-24 01:58N 44°10' E 028°39'0 0.0
2018-Jun-24 01:28N 44°10' E 028°39'0 0.0
2018-Jun-24 00:58N 44°10' E 028°39'0 0.0
2018-Jun-24 00:28N 44°10' E 028°39'0 0.0
2018-Jun-23 23:58N 44°10' E 028°39'0 0.0
2018-Jun-23 23:28N 44°10' E 028°39'0 0.0
2018-Jun-23 22:58N 44°10' E 028°39'0 0.0
2018-Jun-23 22:25N 44°10' E 028°39'0 0.0
2018-Jun-23 21:58N 44°10' E 028°39'0 0.0
2018-Jun-23 21:28N 44°10' E 028°39'0 0.0
2018-Jun-23 20:58N 44°10' E 028°39'0 0.0
2018-Jun-23 20:28N 44°10' E 028°39'0 0.0
2018-Jun-23 19:58N 44°10' E 028°39'0 0.0
2018-Jun-23 19:25N 44°10' E 028°39'0 0.0
2018-Jun-23 18:58N 44°10' E 028°39'0 0.0
2018-Jun-23 18:28N 44°10' E 028°39'0 0.0
2018-Jun-23 17:58N 44°10' E 028°39'0 0.0
2018-Jun-23 17:25N 44°10' E 028°39'0 0.0
2018-Jun-23 16:58N 44°10' E 028°39'0 0.0
2018-Jun-23 16:28N 44°10' E 028°39'0 0.0
2018-Jun-23 15:58N 44°10' E 028°39'0 0.0
2018-Jun-23 15:28N 44°10' E 028°39'0 0.0
2018-Jun-23 14:58N 44°10' E 028°39'0 0.0
2018-Jun-23 14:28N 44°10' E 028°39'0 0.0
2018-Jun-23 13:58N 44°10' E 028°39'0 0.0
2018-Jun-23 13:28N 44°10' E 028°39'0 0.0
2018-Jun-23 12:58N 44°10' E 028°39'0 0.0
2018-Jun-23 12:07N 44°10' E 028°39'0 0.0
2018-Jun-23 11:58N 44°10' E 028°39'0 0.0
2018-Jun-23 11:28N 44°10' E 028°39'0 0.0
2018-Jun-23 10:58N 44°10' E 028°39'0 0.0
2018-Jun-23 10:28N 44°10' E 028°39'0 0.0
2018-Jun-23 09:58N 44°10' E 028°39'0 0.0
2018-Jun-23 09:28N 44°10' E 028°39'0 0.0
2018-Jun-23 08:58N 44°10' E 028°39'0 0.0
2018-Jun-23 08:28N 44°10' E 028°39'0 0.0
2018-Jun-23 07:58N 44°10' E 028°39'0 0.0
2018-Jun-23 07:28N 44°10' E 028°39'0 0.0
2018-Jun-23 06:58N 44°10' E 028°39'0 0.0
2018-Jun-23 06:28N 44°10' E 028°39'0 0.0
2018-Jun-23 05:58N 44°10' E 028°39'0 0.0
2018-Jun-23 05:28N 44°10' E 028°39'0 0.0
2018-Jun-23 04:58N 44°10' E 028°39'0 0.0
2018-Jun-23 04:28N 44°10' E 028°39'0 0.0
2018-Jun-23 03:58N 44°10' E 028°39'0 0.0
2018-Jun-23 03:28N 44°10' E 028°39'0 0.0
2018-Jun-23 02:58N 44°10' E 028°39'0 0.0
2018-Jun-23 02:28N 44°10' E 028°39'0 0.0
2018-Jun-23 01:58N 44°10' E 028°39'0 0.0
2018-Jun-23 01:28N 44°10' E 028°39'0 0.0
2018-Jun-23 00:58N 44°10' E 028°39'0 0.0
2018-Jun-23 00:28N 44°10' E 028°39'0 0.0
2018-Jun-22 23:58N 44°10' E 028°39'0 0.0
2018-Jun-22 23:28N 44°10' E 028°39'0 0.0
2018-Jun-22 22:58N 44°10' E 028°39'0 0.0
2018-Jun-22 22:28N 44°10' E 028°39'0 0.0
2018-Jun-22 21:58N 44°10' E 028°39'0 0.0
2018-Jun-22 21:28N 44°10' E 028°39'0 0.0
2018-Jun-22 20:58N 44°10' E 028°39'0 0.0
2018-Jun-22 20:28N 44°10' E 028°39'0 0.0
2018-Jun-22 19:58N 44°10' E 028°39'0 0.0
2018-Jun-22 19:28N 44°10' E 028°39'0 0.0
2018-Jun-22 18:58N 44°10' E 028°39'0 0.0
2018-Jun-22 18:28N 44°10' E 028°39'0 0.0
2018-Jun-22 17:55N 44°10' E 028°39'0 0.0
2018-Jun-22 17:28N 44°10' E 028°39'0 0.0
2018-Jun-22 16:58N 44°10' E 028°39'0 0.0
2018-Jun-22 16:28N 44°10' E 028°39'0 0.0
2018-Jun-22 15:58N 44°10' E 028°39'0 0.0
2018-Jun-22 15:28N 44°10' E 028°39'0 0.0
2018-Jun-22 14:58N 44°10' E 028°39'0 0.0
2018-Jun-22 14:28N 44°10' E 028°39'0 0.0
2018-Jun-22 13:58N 44°10' E 028°39'0 0.0
2018-Jun-22 13:28N 44°10' E 028°39'0 0.0
2018-Jun-22 12:58N 44°10' E 028°39'0 0.0
2018-Jun-22 12:28N 44°10' E 028°39'0 0.0
2018-Jun-22 11:55N 44°10' E 028°39'0 0.0
2018-Jun-22 11:28N 44°10' E 028°39'0 0.0
2018-Jun-22 11:01N 44°10' E 028°39'0 0.0
2018-Jun-22 10:30N 44°10' E 028°39'0 0.0
2018-Jun-22 10:00N 44°10' E 028°39'0 0.0
2018-Jun-22 09:30N 44°10' E 028°39'0 0.0
2018-Jun-22 09:00N 44°10' E 028°39'0 0.0
2018-Jun-22 08:27N 44°10' E 028°39'0 0.0
2018-Jun-22 08:00N 44°10' E 028°39'0 0.0
2018-Jun-22 07:30N 44°10' E 028°39'0 0.0
2018-Jun-22 07:00N 44°10' E 028°39'0 0.0
2018-Jun-22 06:27N 44°10' E 028°39'0 0.0
2018-Jun-22 05:57N 44°10' E 028°39'0 0.0
2018-Jun-22 05:30N 44°10' E 028°39'0 0.0
2018-Jun-22 05:00N 44°10' E 028°39'0 0.0
2018-Jun-22 04:27N 44°10' E 028°39'0 0.0
2018-Jun-22 03:57N 44°10' E 028°39'0 0.0
2018-Jun-22 03:30N 44°10' E 028°39'0 0.0
2018-Jun-22 03:00N 44°10' E 028°39'0 0.0
2018-Jun-22 02:30N 44°10' E 028°39'0 0.0
2018-Jun-22 02:00N 44°10' E 028°39'0 0.0
2018-Jun-22 01:30N 44°10' E 028°39'0 0.0
2018-Jun-22 01:00N 44°10' E 028°39'0 0.0
2018-Jun-22 00:30N 44°10' E 028°39'0 0.0
2018-Jun-22 00:00N 44°10' E 028°39'0 0.0
2018-Jun-21 23:30N 44°10' E 028°39'0 0.0
2018-Jun-21 23:00N 44°10' E 028°39'0 0.0
2018-Jun-21 22:30N 44°10' E 028°39'0 0.0
2018-Jun-21 22:00N 44°10' E 028°39'0 0.0
2018-Jun-21 21:30N 44°10' E 028°39'0 0.0
2018-Jun-21 21:00N 44°10' E 028°39'0 0.0
2018-Jun-21 20:30N 44°10' E 028°39'0 0.0
2018-Jun-21 20:00N 44°10' E 028°39'0 0.0
2018-Jun-21 19:30N 44°10' E 028°39'0 0.0
2018-Jun-21 19:00N 44°10' E 028°39'0 0.0
2018-Jun-21 18:30N 44°10' E 028°39'0 0.0
2018-Jun-21 17:54N 44°10' E 028°39'0 0.0
2018-Jun-21 17:27N 44°10' E 028°39'0 0.0
2018-Jun-21 17:00N 44°10' E 028°39'0 0.0
2018-Jun-21 16:30N 44°10' E 028°39'0 0.0
2018-Jun-21 16:00N 44°10' E 028°39'0 0.0
2018-Jun-21 15:30N 44°10' E 028°39'0 0.0
2018-Jun-21 15:00N 44°10' E 028°39'0 0.0
2018-Jun-21 14:30N 44°10' E 028°39'0 0.0
2018-Jun-21 14:00N 44°10' E 028°39'0 0.0
2018-Jun-21 13:30N 44°10' E 028°39'0 0.0
2018-Jun-21 13:00N 44°10' E 028°39'0 0.0
2018-Jun-21 12:30N 44°10' E 028°39'0 0.0
2018-Jun-21 12:00N 44°10' E 028°39'0 0.0
2018-Jun-21 11:30N 44°10' E 028°39'0 0.0
2018-Jun-21 11:00N 44°10' E 028°39'0 0.0
2018-Jun-21 10:30N 44°10' E 028°39'0 0.0
2018-Jun-21 10:00N 44°10' E 028°39'0 0.0
2018-Jun-21 09:30N 44°10' E 028°39'0 0.0
2018-Jun-21 08:51N 44°10' E 028°39'0 0.0
2018-Jun-21 08:27N 44°10' E 028°39'0 0.0
2018-Jun-21 08:00N 44°10' E 028°39'0 0.0
2018-Jun-21 07:30N 44°10' E 028°39'0 0.0
2018-Jun-21 07:00N 44°10' E 028°39'0 0.0
2018-Jun-21 04:04N 44°10' E 028°39'0 0.0
2018-Jun-21 03:58N 44°10' E 028°39'0 0.0
2018-Jun-21 03:28N 44°10' E 028°39'0 0.0
2018-Jun-21 02:58N 44°10' E 028°39'0 0.0
2018-Jun-21 02:28N 44°10' E 028°39'0 0.0
2018-Jun-21 01:58N 44°10' E 028°39'0 0.0
2018-Jun-21 01:28N 44°10' E 028°39'0 0.0
2018-Jun-21 00:58N 44°10' E 028°39'0 0.0
2018-Jun-21 00:25N 44°10' E 028°39'0 0.0
2018-Jun-20 23:58N 44°10' E 028°39'  

Dump ship's entire track history